createdAt,value
2017-11-30T00:00:56.395Z,25.90
2017-11-30T00:03:23.903Z,24.17
2017-11-30T00:05:51.450Z,26.23
2017-11-30T00:08:18.943Z,25.57
2017-11-30T00:10:46.542Z,27.70
2017-11-30T00:13:14.061Z,27.30
2017-11-30T00:15:41.567Z,28.90
2017-11-30T00:18:09.124Z,30.67
2017-11-30T00:20:36.637Z,27.70
2017-11-30T00:23:04.179Z,26.20
2017-11-30T00:25:31.692Z,27.47
2017-11-30T00:27:59.231Z,26.50
2017-11-30T00:30:26.756Z,26.70
2017-11-30T00:32:54.303Z,26.10
2017-11-30T00:35:21.809Z,26.50
2017-11-30T00:37:49.376Z,27.43
2017-11-30T00:40:17.638Z,26.10
2017-11-30T00:42:56.909Z,27.97
2017-11-30T00:45:25.178Z,26.13
2017-11-30T00:47:52.743Z,25.07
2017-11-30T00:50:20.254Z,25.73
2017-11-30T00:52:48.565Z,27.80
2017-11-30T00:55:16.084Z,27.73
2017-11-30T00:57:43.590Z,27.90
2017-11-30T01:00:11.899Z,27.20
2017-11-30T01:02:39.425Z,27.40
2017-11-30T01:05:06.966Z,26.70
2017-11-30T01:07:34.495Z,26.07
2017-11-30T01:10:02.849Z,26.00
2017-11-30T01:12:30.362Z,26.70
2017-11-30T01:14:58.667Z,27.57
2017-11-30T01:17:26.182Z,27.27
2017-11-30T01:19:53.727Z,30.03
2017-11-30T01:22:21.259Z,28.47
2017-11-30T01:24:48.776Z,27.60
2017-11-30T01:27:17.079Z,29.63
2017-11-30T01:29:44.761Z,26.20
2017-11-30T01:32:12.651Z,27.60
2017-11-30T01:34:40.245Z,27.93
2017-11-30T01:37:07.791Z,29.10
2017-11-30T01:39:35.345Z,28.77
2017-11-30T01:42:02.860Z,28.60
2017-11-30T01:44:30.421Z,28.37
2017-11-30T01:46:57.977Z,30.50
2017-11-30T01:49:25.527Z,28.53
2017-11-30T02:17:35.997Z,33.80
2017-11-30T02:20:03.502Z,32.20
2017-11-30T02:22:31.076Z,32.20
2017-11-30T02:24:58.588Z,33.13
2017-11-30T02:27:26.092Z,31.33
2017-11-30T02:29:53.655Z,33.00
2017-11-30T02:32:21.159Z,32.30
2017-11-30T02:34:48.690Z,32.87
2017-11-30T02:37:16.187Z,35.60
2017-11-30T02:39:43.739Z,33.07
2017-11-30T02:42:11.265Z,34.13
2017-11-30T02:44:39.535Z,35.90
2017-11-30T02:47:07.076Z,33.80
2017-11-30T02:49:34.592Z,36.93
2017-11-30T02:52:02.139Z,33.17
2017-11-30T02:54:29.639Z,36.80
2017-11-30T02:56:57.200Z,36.27
2017-11-30T02:59:24.705Z,36.30
2017-11-30T03:01:52.203Z,37.07
2017-11-30T03:04:19.757Z,35.43
2017-11-30T03:06:47.267Z,35.27
2017-11-30T03:09:14.800Z,34.53
2017-11-30T03:11:42.329Z,33.60
2017-11-30T03:14:09.879Z,35.17
2017-11-30T03:16:37.394Z,34.87
2017-11-30T03:19:05.703Z,35.07
2017-11-30T03:38:37.549Z,34.43
2017-11-30T03:41:05.863Z,33.57
2017-11-30T03:43:33.378Z,33.00
2017-11-30T03:46:01.428Z,32.10
2017-11-30T03:48:28.941Z,34.77
2017-11-30T03:50:56.443Z,34.60
2017-11-30T03:53:24.762Z,32.00
2017-11-30T03:55:52.261Z,33.10
2017-11-30T03:58:19.793Z,30.60
2017-11-30T04:00:47.318Z,33.30
2017-11-30T04:03:14.862Z,30.67
2017-11-30T04:05:42.374Z,32.07
2017-11-30T04:08:09.931Z,30.20
2017-11-30T04:10:37.439Z,31.97
2017-11-30T04:13:05.699Z,30.00
2017-11-30T04:15:33.243Z,30.50
2017-11-30T04:18:00.764Z,29.73
2017-11-30T04:20:28.302Z,32.50
2017-11-30T04:22:55.806Z,29.47
2017-11-30T04:25:24.129Z,30.90
2017-11-30T04:27:51.631Z,29.37
2017-11-30T04:30:19.169Z,29.00
2017-11-30T04:32:46.737Z,29.43
2017-11-30T04:35:14.239Z,26.50
2017-11-30T04:37:41.767Z,28.97
2017-11-30T04:40:09.291Z,28.37
2017-11-30T04:42:36.820Z,28.57
2017-11-30T04:45:04.314Z,28.57
2017-11-30T04:47:31.875Z,26.37
2017-11-30T04:49:59.371Z,26.60
2017-11-30T04:52:26.915Z,25.97
2017-11-30T04:54:54.441Z,28.20
2017-11-30T04:57:26.019Z,25.93
2017-11-30T04:59:53.572Z,25.63
2017-11-30T05:02:21.091Z,25.87
2017-11-30T05:04:48.625Z,25.77
2017-11-30T05:07:16.122Z,25.40
2017-11-30T05:09:44.433Z,24.80
2017-11-30T05:12:11.944Z,26.40
2017-11-30T05:14:39.519Z,26.50
2017-11-30T05:17:07.032Z,26.80
2017-11-30T05:19:35.388Z,26.07
2017-11-30T05:22:02.891Z,27.13
2017-11-30T05:24:30.406Z,30.77
2017-11-30T05:26:57.958Z,29.20
2017-11-30T05:29:25.456Z,27.70
2017-11-30T05:31:53.002Z,30.90
2017-11-30T05:34:20.508Z,28.93
2017-11-30T05:36:48.058Z,27.20
2017-11-30T05:39:15.564Z,27.53
2017-11-30T05:41:43.105Z,23.50
2017-11-30T05:44:10.634Z,25.67
2017-11-30T05:46:38.984Z,30.40
2017-11-30T05:49:06.487Z,31.87
2017-11-30T05:51:33.985Z,25.23
2017-11-30T05:54:01.509Z,26.73
2017-11-30T05:56:29.006Z,29.80
2017-11-30T05:58:57.342Z,29.60
2017-11-30T06:01:24.863Z,30.90
2017-11-30T06:03:53.164Z,27.97
2017-11-30T06:06:21.452Z,27.67
2017-11-30T06:08:49.874Z,29.13
2017-11-30T06:11:20.026Z,27.93
2017-11-30T06:13:47.588Z,27.97
2017-11-30T06:16:15.102Z,26.43
2017-11-30T06:18:42.607Z,28.80
2017-11-30T06:21:11.004Z,27.50
2017-11-30T06:23:38.567Z,28.70
2017-11-30T06:26:06.870Z,29.43
2017-11-30T06:28:34.380Z,29.57
2017-11-30T06:31:01.951Z,28.90
2017-11-30T06:33:29.461Z,29.70
2017-11-30T06:35:57.780Z,28.97
2017-11-30T06:38:25.290Z,29.67
2017-11-30T06:40:52.778Z,29.97
2017-11-30T06:43:20.319Z,31.10
2017-11-30T06:45:47.821Z,38.10
2017-11-30T06:48:15.359Z,33.47
2017-11-30T06:50:42.854Z,31.53
2017-11-30T06:53:10.399Z,34.50
2017-11-30T06:55:37.907Z,31.50
2017-11-30T06:58:06.220Z,31.23
2017-11-30T07:00:34.483Z,31.40
2017-11-30T07:03:02.101Z,30.93
2017-11-30T07:05:29.617Z,29.83
2017-11-30T07:07:57.113Z,30.97
2017-11-30T07:10:25.415Z,30.67
2017-11-30T07:12:53.685Z,33.80
2017-11-30T07:15:21.231Z,29.63
2017-11-30T07:17:48.736Z,32.60
2017-11-30T07:20:17.044Z,30.10
2017-11-30T07:22:45.318Z,28.27
2017-11-30T07:25:13.622Z,32.63
2017-11-30T07:27:41.134Z,30.53
2017-11-30T07:30:08.679Z,28.23
2017-11-30T07:32:36.197Z,30.77
2017-11-30T07:35:03.707Z,29.43
2017-11-30T07:37:31.258Z,27.63
2017-11-30T07:39:58.773Z,29.23
2017-11-30T07:42:26.309Z,29.43
2017-11-30T07:44:53.806Z,31.03
2017-11-30T07:47:21.368Z,27.07
2017-11-30T07:49:49.627Z,30.27
2017-11-30T07:52:17.198Z,30.13
2017-11-30T07:54:44.706Z,29.67
2017-11-30T07:57:12.240Z,27.07
2017-11-30T07:59:39.774Z,27.20
2017-11-30T08:02:07.286Z,27.17
2017-11-30T08:04:34.858Z,28.47
2017-11-30T08:07:02.346Z,25.80
2017-11-30T08:09:30.650Z,27.93
2017-11-30T08:11:58.916Z,28.93
2017-11-30T08:14:27.224Z,28.20
2017-11-30T08:16:55.500Z,29.57
2017-11-30T08:19:23.052Z,28.00
2017-11-30T08:21:50.555Z,27.83
2017-11-30T08:24:18.841Z,26.60
2017-11-30T08:26:47.177Z,26.13
2017-11-30T08:29:14.678Z,27.80
2017-11-30T08:31:42.259Z,26.90
2017-11-30T08:34:10.530Z,23.73
2017-11-30T08:36:38.071Z,26.60
2017-11-30T08:39:05.591Z,26.20
2017-11-30T08:41:33.130Z,27.10
2017-11-30T08:44:00.634Z,23.93
2017-11-30T08:46:28.180Z,26.27
2017-11-30T08:48:55.716Z,27.87
2017-11-30T08:51:23.269Z,27.07
2017-11-30T08:53:51.753Z,25.93
2017-11-30T08:56:19.307Z,23.83
2017-11-30T08:58:46.803Z,25.80
2017-11-30T09:01:14.301Z,24.77
2017-11-30T09:03:41.847Z,24.83
2017-11-30T09:06:09.356Z,25.40
2017-11-30T09:08:36.899Z,30.12
2017-11-30T09:11:05.174Z,26.57
2017-11-30T09:13:32.717Z,26.20
2017-11-30T09:16:00.230Z,24.67
2017-11-30T09:18:28.594Z,24.53
2017-11-30T09:20:56.096Z,26.60
2017-11-30T09:23:23.606Z,26.53
2017-11-30T09:25:51.163Z,24.20
2017-11-30T09:28:18.666Z,25.20
2017-11-30T09:30:46.229Z,25.70
2017-11-30T09:33:13.729Z,24.33
2017-11-30T09:35:42.070Z,27.40
2017-11-30T09:38:09.567Z,26.03
2017-11-30T09:40:37.164Z,26.30
2017-11-30T09:43:04.676Z,25.10
2017-11-30T09:45:32.255Z,24.80
2017-11-30T09:47:59.759Z,22.80
2017-11-30T09:50:27.256Z,22.37
2017-11-30T09:52:54.814Z,24.20
2017-11-30T09:55:22.318Z,25.63
2017-11-30T09:57:50.622Z,22.20
2017-11-30T10:00:18.122Z,21.10
2017-11-30T10:02:45.693Z,22.47
2017-11-30T10:05:13.221Z,22.97
2017-11-30T10:07:41.497Z,22.07
2017-11-30T10:10:09.813Z,23.73
2017-11-30T10:12:37.323Z,21.50
2017-11-30T10:15:04.855Z,23.70
2017-11-30T10:17:32.387Z,23.70
2017-11-30T10:19:59.943Z,23.17
2017-11-30T10:22:27.515Z,22.50
2017-11-30T10:24:55.054Z,24.27
2017-11-30T10:27:22.591Z,21.20
2017-11-30T10:29:50.142Z,24.10
2017-11-30T10:32:17.648Z,23.40
2017-11-30T10:34:45.927Z,23.57
2017-11-30T10:37:14.233Z,23.83
2017-11-30T10:39:42.507Z,28.67
2017-11-30T10:42:10.829Z,26.23
2017-11-30T10:44:38.347Z,19.70
2017-11-30T10:47:05.939Z,17.07
2017-11-30T10:49:34.222Z,17.77
2017-11-30T10:52:02.538Z,15.40
2017-11-30T10:54:30.059Z,17.00
2017-11-30T10:56:57.587Z,16.47
2017-11-30T10:59:25.086Z,13.73
2017-11-30T11:01:53.328Z,11.53
2017-11-30T11:04:20.845Z,12.57
2017-11-30T11:06:49.242Z,13.13
2017-11-30T11:09:16.756Z,14.20
2017-11-30T11:11:44.261Z,13.33
2017-11-30T11:14:11.829Z,11.50
2017-11-30T11:16:39.342Z,12.50
2017-11-30T11:19:06.892Z,11.40
2017-11-30T11:21:35.270Z,11.97
2017-11-30T11:24:02.831Z,9.27
2017-11-30T11:26:30.343Z,11.70
2017-11-30T11:28:57.882Z,10.60
2017-11-30T11:31:25.430Z,11.70
2017-11-30T11:33:53.743Z,9.93
2017-11-30T11:36:21.246Z,9.43
2017-11-30T11:38:48.800Z,9.20
2017-11-30T11:41:16.391Z,10.07
2017-11-30T11:43:43.895Z,9.10
2017-11-30T11:46:11.445Z,9.30
2017-11-30T11:48:38.946Z,8.93
2017-11-30T11:51:06.487Z,8.83
2017-11-30T11:53:33.995Z,8.50
2017-11-30T11:56:02.304Z,8.40
2017-11-30T11:58:29.815Z,9.00
2017-11-30T12:00:57.370Z,7.30
2017-11-30T12:03:24.887Z,7.13
2017-11-30T12:05:52.369Z,7.97
2017-11-30T12:08:20.662Z,6.37
2017-11-30T12:10:48.171Z,7.90
2017-11-30T12:13:15.698Z,6.47
2017-11-30T12:15:43.961Z,6.80
2017-11-30T12:18:11.509Z,6.37
2017-11-30T12:20:39.002Z,7.00
2017-11-30T12:23:06.561Z,7.00
2017-11-30T12:25:34.050Z,7.50
2017-11-30T12:28:01.540Z,6.77
2017-11-30T12:30:29.077Z,6.80
2017-11-30T12:32:56.569Z,7.07
2017-11-30T12:35:24.097Z,5.73
2017-11-30T12:37:51.600Z,7.33
2017-11-30T12:40:19.134Z,6.40
2017-11-30T12:42:46.623Z,5.67
2017-11-30T12:45:14.141Z,6.57
2017-11-30T12:47:42.407Z,6.20
2017-11-30T12:50:09.926Z,5.40
2017-11-30T12:52:37.419Z,5.27
2017-11-30T12:55:04.986Z,4.70
2017-11-30T12:57:32.474Z,3.57
2017-11-30T12:59:59.964Z,4.17
2017-11-30T13:02:27.500Z,4.07
2017-11-30T13:04:54.996Z,3.37
2017-11-30T13:07:22.521Z,3.50
2017-11-30T13:09:50.020Z,4.73
2017-11-30T13:12:17.570Z,5.40
2017-11-30T13:14:45.067Z,3.20
2017-11-30T13:17:12.596Z,6.10
2017-11-30T13:19:40.859Z,9.13
2017-11-30T13:22:08.404Z,4.50
2017-11-30T13:24:35.898Z,5.60
2017-11-30T13:27:03.424Z,3.73
2017-11-30T13:29:30.914Z,6.70
2017-11-30T13:31:58.412Z,7.70
2017-11-30T13:34:25.940Z,10.10
2017-11-30T13:36:53.432Z,8.30
2017-11-30T13:39:20.981Z,12.23
2017-11-30T13:41:48.468Z,8.30
2017-11-30T13:44:16.040Z,5.87
2017-11-30T13:46:43.530Z,4.43
2017-11-30T13:49:11.025Z,4.00
2017-11-30T13:51:38.550Z,2.77
2017-11-30T13:54:06.054Z,1.60
2017-11-30T13:56:33.613Z,1.10
2017-11-30T13:59:01.148Z,1.00
2017-11-30T14:01:28.687Z,1.63
2017-11-30T14:03:56.179Z,1.57
2017-11-30T14:06:24.448Z,1.63
2017-11-30T14:08:52.385Z,2.07
2017-11-30T14:11:19.901Z,2.40
2017-11-30T14:13:48.228Z,2.47
2017-11-30T14:16:15.725Z,1.93
2017-11-30T14:18:43.371Z,2.03
2017-11-30T14:21:10.852Z,3.17
2017-11-30T14:23:38.394Z,3.20
2017-11-30T14:26:06.656Z,3.00
2017-11-30T14:28:34.140Z,3.37
2017-11-30T14:31:01.663Z,2.63
2017-11-30T14:33:29.161Z,2.07
2017-11-30T14:35:56.692Z,2.80
2017-11-30T14:38:24.176Z,2.93
2017-11-30T14:40:51.704Z,2.10
2017-11-30T14:43:20.006Z,3.17
2017-11-30T14:45:48.292Z,2.90
2017-11-30T14:48:16.599Z,3.20
2017-11-30T14:50:44.120Z,4.40
2017-11-30T14:53:11.669Z,4.90
2017-11-30T14:55:39.164Z,5.50
2017-11-30T14:58:06.692Z,6.00
2017-11-30T15:00:34.362Z,6.33
2017-11-30T15:03:01.918Z,6.60
2017-11-30T15:05:30.177Z,5.90
2017-11-30T15:07:57.674Z,6.70
2017-11-30T15:10:25.216Z,6.60
2017-11-30T15:12:52.865Z,8.00
2017-11-30T15:15:20.404Z,8.13
2017-11-30T15:17:47.904Z,8.07
2017-11-30T15:20:16.257Z,7.93
2017-11-30T15:22:43.786Z,8.23
2017-11-30T15:25:11.281Z,11.97
2017-11-30T15:27:38.875Z,10.70
2017-11-30T15:30:07.153Z,9.70
2017-11-30T15:32:36.101Z,12.10
2017-11-30T15:35:03.611Z,11.67
2017-11-30T15:37:31.135Z,11.23
2017-11-30T15:39:58.650Z,13.40
2017-11-30T15:42:26.276Z,13.00
2017-11-30T15:44:53.773Z,11.10
2017-11-30T15:47:21.272Z,12.13
2017-11-30T15:49:48.800Z,12.33
2017-11-30T15:52:16.298Z,11.60
2017-11-30T15:54:43.867Z,13.50
2017-11-30T15:57:11.364Z,12.00
2017-11-30T15:59:38.906Z,12.60
2017-11-30T16:02:06.413Z,12.00
2017-11-30T16:04:33.916Z,13.03
2017-11-30T16:07:01.445Z,11.80
2017-11-30T16:09:28.943Z,10.90
2017-11-30T16:11:57.240Z,12.80
2017-11-30T16:14:25.505Z,13.20
2017-11-30T16:16:53.855Z,11.07
2017-11-30T16:19:21.327Z,12.10
2017-11-30T16:21:48.868Z,10.43
2017-11-30T16:24:17.126Z,10.70
2017-11-30T16:26:44.636Z,10.33
2017-11-30T16:29:12.175Z,11.37
2017-11-30T16:31:39.717Z,11.63
2017-11-30T16:34:07.244Z,11.20
2017-11-30T16:36:34.813Z,14.27
2017-11-30T16:39:02.500Z,12.43
2017-11-30T16:41:29.988Z,12.80
2017-11-30T16:43:57.520Z,13.10
2017-11-30T16:46:25.836Z,12.17
2017-11-30T16:48:53.332Z,12.83
2017-11-30T16:51:20.873Z,13.17
2017-11-30T16:53:48.376Z,15.03
2017-11-30T16:56:21.604Z,13.53
2017-11-30T16:58:49.128Z,14.27
2017-11-30T17:01:17.005Z,12.53
2017-11-30T17:03:44.675Z,12.20
2017-11-30T17:06:12.181Z,12.30
2017-11-30T17:08:39.923Z,13.03
2017-11-30T17:11:08.978Z,12.07
2017-11-30T17:13:37.937Z,11.83
2017-11-30T17:16:05.605Z,12.40
2017-11-30T17:18:34.690Z,12.33
2017-11-30T17:21:02.184Z,11.30
2017-11-30T17:23:29.720Z,13.03
2017-11-30T17:25:57.214Z,13.03
2017-11-30T17:28:25.992Z,13.50
2017-11-30T17:30:53.495Z,14.60
2017-11-30T17:33:21.001Z,14.03
2017-11-30T17:35:48.565Z,13.57
2017-11-30T17:38:16.054Z,13.73
2017-11-30T17:40:43.598Z,13.90
2017-11-30T17:43:11.120Z,11.63
2017-11-30T17:45:38.676Z,10.80
2017-11-30T17:48:06.188Z,11.93
2017-11-30T17:50:34.611Z,10.17
2017-11-30T17:53:02.126Z,12.20
2017-11-30T17:55:29.690Z,11.73
2017-11-30T17:57:57.195Z,12.43
2017-11-30T18:00:25.468Z,14.07
2017-11-30T18:02:53.054Z,12.80
2017-11-30T18:05:21.309Z,13.60
2017-11-30T18:07:48.853Z,12.20
2017-11-30T18:10:16.395Z,12.53
2017-11-30T18:12:44.065Z,13.47
2017-11-30T18:15:12.352Z,12.27
2017-11-30T18:17:39.892Z,12.73
2017-11-30T18:20:07.396Z,13.23
2017-11-30T18:22:35.744Z,14.50
2017-11-30T18:25:03.262Z,12.77
2017-11-30T18:27:31.597Z,14.30
2017-11-30T18:29:59.868Z,12.47
2017-11-30T18:32:27.396Z,12.00
2017-11-30T18:34:54.932Z,12.67
2017-11-30T18:37:22.446Z,12.33
2017-11-30T18:39:50.043Z,12.37
2017-11-30T18:42:18.299Z,10.13
2017-11-30T18:44:45.929Z,13.60
2017-11-30T18:47:13.492Z,13.70
2017-11-30T18:49:41.014Z,12.83
2017-11-30T18:52:08.658Z,11.53
2017-11-30T18:54:36.147Z,11.97
2017-11-30T18:57:03.672Z,12.43
2017-11-30T18:59:31.246Z,12.27
2017-11-30T19:01:58.787Z,12.67
2017-11-30T19:04:26.309Z,11.47
2017-11-30T19:06:54.433Z,13.10
2017-11-30T19:09:22.040Z,13.07
2017-11-30T19:11:49.557Z,12.77
2017-11-30T19:14:17.161Z,13.70
2017-11-30T19:16:44.653Z,14.20
2017-11-30T19:19:12.217Z,13.63
2017-11-30T19:21:40.488Z,12.83
2017-11-30T19:24:08.049Z,13.73
2017-11-30T19:26:35.566Z,12.83
2017-11-30T19:29:03.155Z,16.58
2017-11-30T19:31:30.663Z,14.77
2017-11-30T19:33:59.137Z,14.60
2017-11-30T19:36:28.773Z,11.90
2017-11-30T19:38:56.310Z,12.00
2017-11-30T19:41:23.873Z,10.43
2017-11-30T19:43:51.485Z,10.03
2017-11-30T19:46:19.469Z,9.70
2017-11-30T19:48:47.012Z,10.13
2017-11-30T19:51:14.557Z,10.13
2017-11-30T19:53:42.950Z,11.43
2017-11-30T19:56:10.500Z,10.10
2017-11-30T19:58:37.996Z,9.50
2017-11-30T20:01:06.383Z,10.53
2017-11-30T20:03:34.716Z,10.43
2017-11-30T20:06:02.220Z,9.47
2017-11-30T20:08:29.769Z,11.50
2017-11-30T20:10:57.258Z,11.00
2017-11-30T20:13:24.798Z,11.20
2017-11-30T20:15:52.294Z,11.80
2017-11-30T20:18:19.829Z,11.40
2017-11-30T20:20:47.391Z,10.80
2017-11-30T20:23:14.968Z,11.87
2017-11-30T20:25:42.480Z,11.80
2017-11-30T20:28:10.185Z,13.33
2017-11-30T20:30:38.448Z,11.70
2017-11-30T20:33:05.945Z,13.90
2017-11-30T20:35:33.478Z,13.63
2017-11-30T20:38:01.709Z,13.47
2017-11-30T20:40:30.020Z,12.80
2017-11-30T20:42:57.534Z,13.20
2017-11-30T20:45:25.117Z,12.87
2017-11-30T20:47:52.616Z,11.37
2017-11-30T20:50:20.168Z,10.23
2017-11-30T20:52:47.750Z,11.03
2017-11-30T20:55:15.246Z,9.57
2017-11-30T20:57:43.686Z,11.23
2017-11-30T21:00:11.241Z,10.33
2017-11-30T21:02:38.866Z,10.70
2017-11-30T21:05:06.409Z,10.40
2017-11-30T21:07:34.036Z,11.60
2017-11-30T21:10:01.576Z,11.37
2017-11-30T21:12:29.081Z,12.70
2017-11-30T21:14:57.411Z,14.10
2017-11-30T21:17:24.904Z,12.60
2017-11-30T21:19:52.445Z,11.57
2017-11-30T21:22:19.939Z,13.30
2017-11-30T21:24:47.479Z,10.80
2017-11-30T21:27:15.738Z,11.73
2017-11-30T21:29:43.337Z,11.37
2017-11-30T21:32:10.848Z,10.57
2017-11-30T21:34:38.344Z,15.97
2017-11-30T21:37:06.649Z,11.10
2017-11-30T21:39:34.152Z,11.30
2017-11-30T21:42:01.692Z,12.23
2017-11-30T21:44:29.208Z,12.40
2017-11-30T21:46:56.733Z,12.23
2017-11-30T21:49:24.219Z,12.10
2017-11-30T21:51:51.776Z,12.40
2017-11-30T21:54:20.068Z,12.93
2017-11-30T21:56:47.603Z,11.37
2017-11-30T21:59:15.116Z,11.70
2017-11-30T22:01:42.704Z,13.07
2017-11-30T22:04:10.253Z,13.00
2017-11-30T22:06:38.509Z,13.37
2017-11-30T22:09:06.041Z,12.23
2017-11-30T22:11:33.546Z,13.27
2017-11-30T22:14:01.088Z,13.30
2017-11-30T22:16:28.593Z,13.40
2017-11-30T22:18:56.125Z,14.00
2017-11-30T22:21:23.625Z,13.63
2017-11-30T22:23:51.200Z,12.77
2017-11-30T22:26:18.703Z,15.00
2017-11-30T22:28:46.290Z,14.40
2017-11-30T22:31:13.788Z,14.10
2017-11-30T22:33:41.272Z,15.37
2017-11-30T22:36:08.796Z,16.53
2017-11-30T22:38:37.056Z,14.53
2017-11-30T22:41:04.605Z,14.73
2017-11-30T22:43:32.112Z,14.97
2017-11-30T22:45:59.638Z,14.57
2017-11-30T22:48:27.157Z,13.77
2017-11-30T22:50:54.696Z,14.83
2017-11-30T22:53:22.223Z,13.67
2017-11-30T22:55:49.772Z,13.97
2017-11-30T22:58:17.428Z,15.20
2017-11-30T23:00:44.920Z,15.67
2017-11-30T23:03:13.208Z,14.90
2017-11-30T23:05:41.469Z,14.43
2017-11-30T23:08:09.000Z,13.10
2017-11-30T23:10:36.497Z,11.90
2017-11-30T23:13:04.060Z,14.77
2017-11-30T23:15:31.572Z,12.80
2017-11-30T23:17:59.104Z,14.33
2017-11-30T23:20:26.605Z,13.97
2017-11-30T23:22:54.133Z,14.30
2017-11-30T23:25:21.650Z,13.37
2017-11-30T23:27:49.204Z,13.27
2017-11-30T23:30:16.756Z,14.20
2017-11-30T23:32:44.337Z,15.23
2017-11-30T23:35:11.860Z,13.80
2017-11-30T23:37:40.115Z,13.73
2017-11-30T23:40:07.645Z,13.40
2017-11-30T23:42:35.147Z,14.00
2017-11-30T23:45:02.684Z,15.07
2017-11-30T23:47:30.193Z,15.53
2017-11-30T23:49:57.731Z,14.67
2017-11-30T23:52:25.229Z,14.93
2017-11-30T23:54:52.775Z,14.33
2017-11-30T23:57:20.300Z,15.20
2017-11-30T23:59:47.860Z,16.90
